Warning: fopen(/var/www/metroair/shared/private/wxdata/TAF/AVWX/taf_KOKC): failed to open stream: Permission denied in /var/www/metroair/shared/private/library/orig_library/lib_airport.php on line 533

Warning: fwrite() expects parameter 1 to be resource, boolean given in /var/www/metroair/shared/private/library/orig_library/lib_airport.php on line 534

Warning: fclose() expects parameter 1 to be resource, boolean given in /var/www/metroair/shared/private/library/orig_library/lib_airport.php on line 535
Featured Flight

MET2281 - Kansas City to Oklahoma City

Bombardier Dash-8-Q200
835AG
1 hr 20 mins
272 nm
Scheduled - Daily

Bid/PiRep Status

Bid was submitted on Oct 21 2016.

PiRep # 73801: Approved by Dave Nichols on October 26th, 2016 20:43 UTC

Departure

Departing from
Kansas City (MCI)
Departure gate
Scheduled Departure
GMT 1500
Local 0900
METAR KMCI 222353Z 33006KT 10SM BKN200 21/01 A2964 RMK AO2 SLP033 T02110011 10261 20200 53003 $
TAF KMCI 222322Z 2300/2324 28006KT P6SM BKN200 FM230800 05007KT P6SM SCT250 FM231500 08011G21KT P6SM VCSH BKN070 FM232000 10014KT P6SM OVC070
  • No charts available

Arrival

Arriving at
Oklahoma City (OKC)
Arrival gate
8
Scheduled Arrival
GMT 1620
Local 1020
METAR KOKC 222352Z 23007KT 10SM BKN240 22/05 A2970 RMK AO2 SLP052 T02220050 10272 20222 55001
TAF KOKC 222336Z 2300/2324 17006KT P6SM SCT250 FM231500 18012G18KT P6SM BKN250

Route Map

Planning Resources

WLDCT2 GULLI1
DOSOA J25 TUL GULLI
â– RACER3 DOSOA TUL TRUMP5
KMCI DOSOA TUL DWINE KOKC
DOSOA WP1 TUL KOKC
Route:
OFP Layout:
Units:
Detailed Navlog:
ETOPS Planning:
Plan Stepclimbs:
Runway Analysis:
Include NOTAMS:
FIR NOTAMS:
Flight Maps:

Return Flights

MET2282
Bombardier Dash-8-Q200
1650 GMT
MET2286
Bombardier Dash-8-Q200
2330 GMT
MET3421
Bombardier Dash-8-Q400
1335 GMT
MET3423
Bombardier Dash-8-Q400
2040 GMT

Popularity

Hub Current Bids PiReps this month Total PiReps
KMCI 0 0 1
KLAX 0 0 0
KBOS 0 0 0